Airfield :
LOGIN :

Register | Disclaimer

   EN    FR    IT 

 










Legend :    VFR   Marginal VFR   IFR   Intensive IFR   Very Intensive IFR
Visi :
Ceiling :
>= 8 km
>= 3000ft
5 to 8 km
1000 to 3000 ft
1500m to 5 km
500 to 1000 ft
800 to 1500m
200 to 500 ft
< 800m
< 200 ft
Symbols :   Thunderstorms  Fog  Heavy snow  Heavy precipitations  Wind > 20 kt
SIGMETs :     Misc.  Thunderstorms  Icing  Turbulence  Mountain Waves  Volcanic Ashes







- Airport Elevation : 24 ft
- IATA code : IBZ


LEIB - Ibiza

CURRENT METAR :
  • 150600Z VRB01KT CAVOK 09/06 Q1022 NOSIG

EXPIRED METARs :
  • 150530Z VRB02KT CAVOK 10/06 Q1022 NOSIG
  • 150500Z 27001KT CAVOK 10/07 Q1022 NOSIG
  • 150430Z 00000KT CAVOK 11/07 Q1022 NOSIG
  • 150400Z AUTO VRB01KT CAVOK 10/08 Q1022
  • 150330Z AUTO VRB02KT CAVOK 10/08 Q1022

TAF TAF LEIB
Valid from the 15 at 03:00 until the 16 at 03:00 UTC


150200Z 1503/1603 29007KT 9999 FEW030 TX17/1512Z TN08/1506Z
BECMG 1507/1510 27008KT
No reported NOTAMs for that airfield.



MET'MAP, your aeronautical weather chart ! - Copyright ORBIFLY December 2007 - Disclaimer

ORBIFLY MET'MAP TEAM :

Programming & Development : Alexandra Zaïnal
Concept & Development : Baudouin d'Aumeries
Co-Development & Prog : Marc-Olivier Méhu
Technical & hardware support : Manuel Goepfert

Contact : metmap@orbifly.com




SOURCES & CREDITS :

   NOAA